createdAt,value
2018-11-12T00:00:44.670Z,5.10
2018-11-12T00:01:51.438Z,3.90
2018-11-12T00:02:58.198Z,3.50
2018-11-12T00:04:05.206Z,4.70
2018-11-12T00:05:11.957Z,5.50
2018-11-12T00:06:18.803Z,5.80
2018-11-12T00:07:25.555Z,5.00
2018-11-12T00:08:32.334Z,4.70
2018-11-12T00:09:39.086Z,5.20
2018-11-12T00:10:45.847Z,5.90
2018-11-12T00:11:52.598Z,5.50
2018-11-12T00:12:59.330Z,4.40
2018-11-12T00:14:06.114Z,4.30
2018-11-12T00:15:13.007Z,3.70
2018-11-12T00:16:19.774Z,3.90
2018-11-12T00:17:26.503Z,3.50
2018-11-12T00:18:33.303Z,3.40
2018-11-12T00:19:40.031Z,3.80
2018-11-12T00:20:46.765Z,3.80
2018-11-12T00:21:53.517Z,4.10
2018-11-12T00:23:00.184Z,4.10
2018-11-12T00:24:07.021Z,3.60
2018-11-12T00:25:13.713Z,4.10
2018-11-12T00:26:20.470Z,4.40
2018-11-12T00:27:27.198Z,4.00
2018-11-12T00:28:33.902Z,4.00
2018-11-12T00:29:40.734Z,3.80
2018-11-12T00:30:47.457Z,3.50
2018-11-12T00:31:54.161Z,4.00
2018-11-12T00:33:00.857Z,3.80
2018-11-12T00:34:07.724Z,3.70
2018-11-12T00:35:14.506Z,3.30
2018-11-12T00:36:21.280Z,3.70
2018-11-12T00:37:28.115Z,4.00
2018-11-12T00:38:34.861Z,4.90
2018-11-12T00:39:41.614Z,3.80
2018-11-12T00:40:48.349Z,3.80
2018-11-12T00:41:55.162Z,3.80
2018-11-12T00:43:01.898Z,3.20
2018-11-12T00:44:08.727Z,4.10
2018-11-12T00:45:15.569Z,3.90
2018-11-12T00:46:22.309Z,3.70
2018-11-12T00:47:29.064Z,3.70
2018-11-12T00:48:35.851Z,3.90
2018-11-12T00:49:42.607Z,3.80
2018-11-12T00:50:49.755Z,4.00
2018-11-12T00:51:56.521Z,4.20
2018-11-12T00:53:03.270Z,4.30
2018-11-12T00:54:10.019Z,4.10
2018-11-12T00:55:16.788Z,3.90
2018-11-12T00:56:23.535Z,4.50
2018-11-12T00:57:30.299Z,3.90
2018-11-12T00:58:37.022Z,3.60
2018-11-12T00:59:43.846Z,3.50
2018-11-12T01:00:50.635Z,4.10
2018-11-12T01:01:57.370Z,5.10
2018-11-12T01:03:04.221Z,4.20
2018-11-12T01:04:11.025Z,4.80
2018-11-12T01:05:17.805Z,4.00
2018-11-12T01:06:24.486Z,4.30
2018-11-12T01:07:31.243Z,4.80
2018-11-12T01:08:37.996Z,3.70
2018-11-12T01:09:44.791Z,3.90
2018-11-12T01:10:51.533Z,3.80
2018-11-12T01:11:58.291Z,6.20
2018-11-12T01:13:05.066Z,4.10
2018-11-12T01:14:11.822Z,3.90
2018-11-12T01:15:18.586Z,3.80
2018-11-12T01:16:25.546Z,3.70
2018-11-12T01:17:32.299Z,4.20
2018-11-12T01:18:39.130Z,4.20
2018-11-12T01:19:45.880Z,5.50
2018-11-12T01:20:52.646Z,4.20
2018-11-12T01:21:59.379Z,3.50
2018-11-12T01:23:06.184Z,4.00
2018-11-12T01:24:12.918Z,3.40
2018-11-12T01:25:19.824Z,3.90
2018-11-12T01:26:26.597Z,3.70
2018-11-12T01:27:33.387Z,3.90
2018-11-12T01:28:40.142Z,3.90
2018-11-12T01:29:46.882Z,4.30
2018-11-12T01:30:53.638Z,3.60
2018-11-12T01:32:00.598Z,4.00
2018-11-12T01:33:07.533Z,3.70
2018-11-12T01:34:14.315Z,4.10
2018-11-12T01:35:21.170Z,3.40
2018-11-12T01:36:27.916Z,4.00
2018-11-12T01:37:34.678Z,4.20
2018-11-12T01:38:41.565Z,3.90
2018-11-12T01:39:48.325Z,3.90
2018-11-12T01:40:55.077Z,4.20
2018-11-12T01:42:01.898Z,3.80
2018-11-12T01:43:08.660Z,3.90
2018-11-12T01:44:15.437Z,3.60
2018-11-12T01:45:22.232Z,3.90
2018-11-12T01:46:29.045Z,4.20
2018-11-12T01:47:35.799Z,4.30
2018-11-12T01:48:42.613Z,3.80
2018-11-12T01:49:49.434Z,4.10
2018-11-12T01:50:56.192Z,3.90
2018-11-12T01:52:02.958Z,4.10
2018-11-12T01:53:10.038Z,3.60
2018-11-12T01:54:16.766Z,3.80
2018-11-12T01:55:23.638Z,3.80
2018-11-12T01:56:30.383Z,3.80
2018-11-12T01:57:37.118Z,3.80
2018-11-12T01:58:43.882Z,3.50
2018-11-12T01:59:50.658Z,3.20
2018-11-12T02:00:57.430Z,3.30
2018-11-12T02:02:04.193Z,3.40
2018-11-12T02:03:10.937Z,3.40
2018-11-12T02:04:17.722Z,3.40
2018-11-12T02:05:24.522Z,3.20
2018-11-12T02:06:31.254Z,3.50
2018-11-12T02:07:38.138Z,3.70
2018-11-12T02:08:45.188Z,3.30
2018-11-12T02:09:51.938Z,3.50
2018-11-12T02:10:58.706Z,3.70
2018-11-12T02:12:05.488Z,3.70
2018-11-12T02:13:12.239Z,3.30
2018-11-12T02:14:19.017Z,3.30
2018-11-12T02:15:25.893Z,3.40
2018-11-12T02:16:32.678Z,4.40
2018-11-12T02:17:39.449Z,3.40
2018-11-12T02:18:46.590Z,3.50
2018-11-12T02:19:53.421Z,3.40
2018-11-12T02:21:00.214Z,3.50
2018-11-12T02:22:06.997Z,3.40
2018-11-12T02:23:13.788Z,4.30
2018-11-12T02:24:20.537Z,3.60
2018-11-12T02:25:27.409Z,3.70
2018-11-12T02:26:34.202Z,3.90
2018-11-12T02:27:40.978Z,4.20
2018-11-12T02:28:47.837Z,4.60
2018-11-12T02:29:54.614Z,4.20
2018-11-12T02:31:01.407Z,4.00
2018-11-12T02:32:08.524Z,3.70
2018-11-12T02:33:15.414Z,4.20
2018-11-12T02:34:22.327Z,4.50
2018-11-12T02:35:29.155Z,4.30
2018-11-12T02:36:35.929Z,4.40
2018-11-12T02:37:42.729Z,4.00
2018-11-12T02:38:49.578Z,4.90
2018-11-12T02:39:56.355Z,4.50
2018-11-12T02:41:03.147Z,4.10
2018-11-12T02:42:10.255Z,4.30
2018-11-12T02:43:17.120Z,4.80
2018-11-12T02:44:23.902Z,4.30
2018-11-12T02:45:30.677Z,4.30
2018-11-12T02:46:37.560Z,4.40
2018-11-12T02:47:44.402Z,4.50
2018-11-12T02:48:51.130Z,4.50
2018-11-12T02:49:57.951Z,6.20
2018-11-12T02:51:04.821Z,4.30
2018-11-12T02:52:11.698Z,4.70
2018-11-12T02:53:18.466Z,4.50
2018-11-12T02:54:25.198Z,4.70
2018-11-12T02:55:31.953Z,4.40
2018-11-12T02:56:38.744Z,4.00
2018-11-12T02:57:45.488Z,3.80
2018-11-12T02:58:52.648Z,4.20
2018-11-12T02:59:59.405Z,4.70
2018-11-12T03:01:06.255Z,4.40
2018-11-12T03:02:13.052Z,4.10
2018-11-12T03:03:19.800Z,4.30
2018-11-12T03:04:26.529Z,4.40
2018-11-12T03:05:33.271Z,4.10
2018-11-12T03:06:40.011Z,3.50
2018-11-12T03:07:46.777Z,4.00
2018-11-12T03:08:53.587Z,3.30
2018-11-12T03:10:00.438Z,4.10
2018-11-12T03:11:07.311Z,4.60
2018-11-12T03:12:14.091Z,3.50
2018-11-12T03:13:20.869Z,3.90
2018-11-12T03:14:27.604Z,4.50
2018-11-12T03:15:34.388Z,3.90
2018-11-12T03:16:41.179Z,3.60
2018-11-12T03:17:47.928Z,3.80
2018-11-12T03:18:54.942Z,4.00
2018-11-12T03:20:01.739Z,3.90
2018-11-12T03:21:08.445Z,3.80
2018-11-12T03:22:15.259Z,3.80
2018-11-12T03:23:22.161Z,3.80
2018-11-12T03:24:28.910Z,4.00
2018-11-12T03:25:35.693Z,4.20
2018-11-12T03:26:42.466Z,3.90
2018-11-12T03:27:49.403Z,4.20
2018-11-12T03:28:56.050Z,3.70
2018-11-12T03:30:02.850Z,3.50
2018-11-12T03:31:09.933Z,4.50
2018-11-12T03:32:16.826Z,3.90
2018-11-12T03:33:23.691Z,3.80
2018-11-12T03:34:30.457Z,3.50
2018-11-12T03:35:37.226Z,4.30
2018-11-12T03:36:44.018Z,3.70
2018-11-12T03:37:50.791Z,3.80
2018-11-12T03:38:57.674Z,4.10
2018-11-12T03:40:04.462Z,4.20
2018-11-12T03:41:11.298Z,4.10
2018-11-12T03:42:18.125Z,4.40
2018-11-12T03:43:24.903Z,4.10
2018-11-12T03:44:31.660Z,4.40
2018-11-12T03:45:38.407Z,4.20
2018-11-12T03:46:45.220Z,3.90
2018-11-12T03:47:51.998Z,4.60
2018-11-12T03:48:58.974Z,4.60
2018-11-12T03:50:05.741Z,4.60
2018-11-12T03:51:12.927Z,4.60
2018-11-12T03:52:19.706Z,4.90
2018-11-12T03:53:26.521Z,4.20
2018-11-12T03:54:33.297Z,4.40
2018-11-12T03:55:40.053Z,4.20
2018-11-12T03:56:46.822Z,4.00
2018-11-12T03:57:53.582Z,4.70
2018-11-12T03:59:00.329Z,4.30
2018-11-12T04:00:07.189Z,4.20
2018-11-12T04:01:13.951Z,4.20
2018-11-12T04:02:20.750Z,4.30
2018-11-12T04:03:27.530Z,4.30
2018-11-12T04:04:34.354Z,4.90
2018-11-12T04:05:41.119Z,4.20
2018-11-12T04:06:47.876Z,4.20
2018-11-12T04:07:54.652Z,3.80
2018-11-12T04:09:01.592Z,4.40
2018-11-12T04:10:08.714Z,4.10
2018-11-12T04:11:15.764Z,4.30
2018-11-12T04:12:22.570Z,4.00
2018-11-12T04:13:29.321Z,4.60
2018-11-12T04:14:36.117Z,4.40
2018-11-12T04:15:42.907Z,5.10
2018-11-12T04:16:49.654Z,4.00
2018-11-12T04:17:56.438Z,4.50
2018-11-12T04:19:03.182Z,4.20
2018-11-12T04:20:09.993Z,3.80
2018-11-12T04:21:16.925Z,4.10
2018-11-12T04:22:23.685Z,4.00
2018-11-12T04:23:30.470Z,4.20
2018-11-12T04:24:37.206Z,4.00
2018-11-12T04:25:44.007Z,4.70
2018-11-12T04:26:50.761Z,4.00
2018-11-12T04:27:57.543Z,4.50
2018-11-12T04:29:04.384Z,4.20
2018-11-12T04:30:11.118Z,4.20
2018-11-12T04:31:17.978Z,4.00
2018-11-12T04:32:24.709Z,4.70
2018-11-12T04:33:31.519Z,4.30
2018-11-12T04:34:38.282Z,4.10
2018-11-12T04:35:45.014Z,4.00
2018-11-12T04:36:51.769Z,4.30
2018-11-12T04:37:58.577Z,4.50
2018-11-12T04:39:05.469Z,4.00
2018-11-12T04:40:12.384Z,4.00
2018-11-12T04:41:19.222Z,4.30
2018-11-12T04:42:26.102Z,4.20
2018-11-12T04:43:32.895Z,4.00
2018-11-12T04:44:39.689Z,4.30
2018-11-12T04:45:46.593Z,3.80
2018-11-12T04:46:53.308Z,4.30
2018-11-12T04:48:00.093Z,4.10
2018-11-12T04:49:06.970Z,4.10
2018-11-12T04:50:13.725Z,4.70
2018-11-12T04:51:20.422Z,4.00
2018-11-12T04:52:27.169Z,4.10
2018-11-12T04:53:34.083Z,4.40
2018-11-12T04:54:40.785Z,3.90
2018-11-12T04:55:47.526Z,4.00
2018-11-12T04:56:54.252Z,4.70
2018-11-12T04:58:01.062Z,4.30
2018-11-12T04:59:07.869Z,4.40
2018-11-12T05:00:14.598Z,4.00
2018-11-12T05:01:21.541Z,4.70
2018-11-12T05:02:28.270Z,4.00
2018-11-12T05:03:35.192Z,3.80
2018-11-12T05:04:41.950Z,4.30
2018-11-12T05:05:48.687Z,3.90
2018-11-12T05:06:55.539Z,4.10
2018-11-12T05:08:02.306Z,4.30
2018-11-12T05:09:09.312Z,4.00
2018-11-12T05:10:16.252Z,3.80
2018-11-12T05:11:23.371Z,3.80
2018-11-12T05:12:30.208Z,4.30
2018-11-12T05:13:36.972Z,4.40
2018-11-12T05:14:43.716Z,5.10
2018-11-12T05:15:50.510Z,4.10
2018-11-12T05:16:57.327Z,4.20
2018-11-12T05:18:04.119Z,4.30
2018-11-12T05:19:10.928Z,4.30
2018-11-12T05:20:17.689Z,4.60
2018-11-12T05:21:24.819Z,4.00
2018-11-12T05:22:31.599Z,4.30
2018-11-12T05:23:38.425Z,4.50
2018-11-12T05:24:45.236Z,4.40
2018-11-12T05:25:51.982Z,3.90
2018-11-12T05:26:58.801Z,4.90
2018-11-12T05:28:05.629Z,5.20
2018-11-12T05:29:12.389Z,4.40
2018-11-12T05:30:19.184Z,4.20
2018-11-12T05:31:26.194Z,4.90
2018-11-12T05:32:32.966Z,4.60
2018-11-12T05:33:39.864Z,4.80
2018-11-12T05:34:46.646Z,4.50
2018-11-12T05:35:53.428Z,5.90
2018-11-12T05:37:00.271Z,4.70
2018-11-12T05:38:07.101Z,4.90
2018-11-12T05:39:13.929Z,4.30
2018-11-12T05:40:20.702Z,4.60
2018-11-12T05:41:27.662Z,3.70
2018-11-12T05:42:34.483Z,3.50
2018-11-12T05:43:41.289Z,3.70
2018-11-12T05:44:48.090Z,4.40
2018-11-12T05:45:54.929Z,6.10
2018-11-12T05:47:01.722Z,4.70
2018-11-12T05:48:08.663Z,4.90
2018-11-12T05:49:15.483Z,5.10
2018-11-12T05:50:22.235Z,5.00
2018-11-12T05:51:29.435Z,4.90
2018-11-12T05:52:36.209Z,5.30
2018-11-12T05:53:42.989Z,5.20
2018-11-12T05:54:49.778Z,4.70
2018-11-12T05:55:56.621Z,4.70
2018-11-12T05:57:03.408Z,4.40
2018-11-12T05:58:10.230Z,4.40
2018-11-12T05:59:17.045Z,4.10
2018-11-12T06:00:23.833Z,4.40
2018-11-12T06:01:30.942Z,4.60
2018-11-12T06:02:37.729Z,4.20
2018-11-12T06:03:44.449Z,4.80
2018-11-12T06:04:51.307Z,5.10
2018-11-12T06:05:58.169Z,4.80
2018-11-12T06:07:05.359Z,5.00
2018-11-12T06:08:12.118Z,4.30
2018-11-12T06:09:18.959Z,4.20
2018-11-12T06:10:25.873Z,4.20
2018-11-12T06:11:32.761Z,4.00
2018-11-12T06:12:39.611Z,4.60
2018-11-12T06:13:46.649Z,4.30
2018-11-12T06:14:53.558Z,4.90
2018-11-12T06:16:00.498Z,4.80
2018-11-12T06:17:07.015Z,3.90
2018-11-12T06:18:13.799Z,5.10
2018-11-12T06:19:20.630Z,4.20
2018-11-12T06:20:27.439Z,3.80
2018-11-12T06:21:34.498Z,4.20
2018-11-12T06:22:41.269Z,5.30
2018-11-12T06:23:48.049Z,4.50
2018-11-12T06:24:54.836Z,4.20
2018-11-12T06:26:01.584Z,4.10
2018-11-12T06:27:08.386Z,5.00
2018-11-12T06:28:15.151Z,5.00
2018-11-12T06:29:21.907Z,4.60
2018-11-12T06:30:28.788Z,5.00
2018-11-12T06:31:35.448Z,5.70
2018-11-12T06:32:42.531Z,6.10
2018-11-12T06:33:49.285Z,4.90
2018-11-12T06:34:56.066Z,4.70
2018-11-12T06:36:02.819Z,4.30
2018-11-12T06:37:09.699Z,4.30
2018-11-12T06:38:16.459Z,5.80
2018-11-12T06:39:23.274Z,4.30
2018-11-12T06:40:30.243Z,5.00
2018-11-12T06:41:37.050Z,4.00
2018-11-12T06:42:44.155Z,5.10
2018-11-12T06:43:50.822Z,6.20
2018-11-12T06:44:57.567Z,6.60
2018-11-12T06:46:04.337Z,6.40
2018-11-12T06:47:11.084Z,6.30
2018-11-12T06:48:17.842Z,6.00
2018-11-12T06:49:24.596Z,6.30
2018-11-12T06:50:31.614Z,6.20
2018-11-12T06:51:38.428Z,7.00
2018-11-12T06:52:45.232Z,6.30
2018-11-12T06:53:51.991Z,6.20
2018-11-12T06:54:58.733Z,6.60
2018-11-12T06:56:05.522Z,6.40
2018-11-12T06:57:12.383Z,6.40
2018-11-12T06:58:19.109Z,6.60
2018-11-12T06:59:25.866Z,6.10
2018-11-12T07:00:32.617Z,7.00
2018-11-12T07:01:39.665Z,7.60
2018-11-12T07:02:46.389Z,5.80
2018-11-12T07:03:53.148Z,4.50
2018-11-12T07:04:59.895Z,4.50
2018-11-12T07:06:06.691Z,4.40
2018-11-12T07:07:13.425Z,4.50
2018-11-12T07:08:20.181Z,4.10
2018-11-12T07:09:27.254Z,4.40
2018-11-12T07:10:34.066Z,4.60
2018-11-12T07:11:40.854Z,3.90
2018-11-12T07:12:47.588Z,5.50
2018-11-12T07:13:54.647Z,4.70
2018-11-12T07:15:01.470Z,4.80
2018-11-12T07:16:08.618Z,4.80
2018-11-12T07:17:15.371Z,7.60
2018-11-12T07:18:22.164Z,6.50
2018-11-12T07:19:29.005Z,7.20
2018-11-12T07:20:35.710Z,7.30
2018-11-12T07:21:42.546Z,7.60
2018-11-12T07:22:49.291Z,8.20
2018-11-12T07:23:56.498Z,8.50
2018-11-12T07:25:03.264Z,8.40
2018-11-12T07:26:09.968Z,9.70
2018-11-12T07:27:16.694Z,8.90
2018-11-12T07:28:23.596Z,8.70
2018-11-12T07:29:30.359Z,9.30
2018-11-12T07:30:37.115Z,8.60
2018-11-12T07:31:43.954Z,8.10
2018-11-12T07:32:50.706Z,8.40
2018-11-12T07:33:57.374Z,8.90
2018-11-12T07:35:04.117Z,7.30
2018-11-12T07:36:10.990Z,7.20
2018-11-12T07:37:17.746Z,5.80
2018-11-12T07:38:24.519Z,6.10
2018-11-12T07:39:31.251Z,6.90
2018-11-12T07:40:38.007Z,7.60
2018-11-12T07:41:44.807Z,7.70
2018-11-12T07:42:51.555Z,7.10
2018-11-12T07:43:58.389Z,6.50
2018-11-12T07:45:05.142Z,6.80
2018-11-12T07:46:11.987Z,6.80
2018-11-12T07:47:18.781Z,6.40
2018-11-12T07:48:25.531Z,8.50
2018-11-12T07:49:32.270Z,8.60
2018-11-12T07:50:39.022Z,7.60
2018-11-12T07:51:45.831Z,9.00
2018-11-12T07:52:52.589Z,11.00
2018-11-12T07:53:59.337Z,10.10
2018-11-12T07:55:06.169Z,9.20
2018-11-12T07:56:13.171Z,7.50
2018-11-12T07:57:19.913Z,9.10
2018-11-12T07:58:26.675Z,7.80
2018-11-12T07:59:33.410Z,7.90
2018-11-12T08:00:40.153Z,8.90
2018-11-12T08:01:46.948Z,7.40
2018-11-12T08:02:53.708Z,11.10
2018-11-12T08:04:00.603Z,9.10
2018-11-12T08:05:07.361Z,10.90
2018-11-12T08:06:14.512Z,7.80
2018-11-12T08:07:21.266Z,9.30
2018-11-12T08:08:29.258Z,7.80
2018-11-12T08:09:35.076Z,7.40
2018-11-12T08:10:41.830Z,9.30
2018-11-12T08:11:48.659Z,8.80
2018-11-12T08:12:55.403Z,8.10
2018-11-12T08:14:02.173Z,9.60
2018-11-12T08:15:09.197Z,8.00
2018-11-12T08:16:15.929Z,9.00
2018-11-12T08:17:22.729Z,7.30
2018-11-12T08:18:29.498Z,8.30
2018-11-12T08:19:36.279Z,9.30
2018-11-12T08:20:43.102Z,11.00
2018-11-12T08:21:49.921Z,9.60
2018-11-12T08:22:56.654Z,8.30
2018-11-12T08:24:03.524Z,7.60
2018-11-12T08:25:10.222Z,11.00
2018-11-12T08:26:17.294Z,9.70
2018-11-12T08:27:24.158Z,8.00
2018-11-12T08:28:30.926Z,9.50
2018-11-12T08:29:37.684Z,7.90
2018-11-12T08:30:44.525Z,9.60
2018-11-12T08:31:51.305Z,9.10
2018-11-12T08:32:58.157Z,7.30
2018-11-12T08:34:04.769Z,8.50
2018-11-12T08:35:11.562Z,7.20
2018-11-12T08:36:18.519Z,7.80
2018-11-12T08:37:25.356Z,8.00
2018-11-12T08:38:32.209Z,9.70
2018-11-12T08:39:39.101Z,7.60
2018-11-12T08:40:45.785Z,9.20
2018-11-12T08:41:52.556Z,7.40
2018-11-12T08:42:59.389Z,10.00
2018-11-12T08:44:06.153Z,8.60
2018-11-12T08:45:13.245Z,7.90
2018-11-12T08:46:20.308Z,8.90
2018-11-12T08:47:27.135Z,8.70
2018-11-12T08:48:34.148Z,6.80
2018-11-12T08:49:40.986Z,7.90
2018-11-12T08:50:47.722Z,8.60
2018-11-12T08:51:54.517Z,7.90
2018-11-12T08:53:01.622Z,6.90
2018-11-12T08:54:08.277Z,6.50
2018-11-12T08:55:15.187Z,9.40
2018-11-12T08:56:22.138Z,7.10
2018-11-12T08:57:28.937Z,10.00
2018-11-12T08:58:35.704Z,8.70
2018-11-12T08:59:42.566Z,8.60
2018-11-12T09:00:49.382Z,8.10
2018-11-12T09:01:56.093Z,6.20
2018-11-12T09:03:02.914Z,7.10
2018-11-12T09:04:09.738Z,7.20
2018-11-12T09:05:16.491Z,9.00
2018-11-12T09:06:23.701Z,6.50
2018-11-12T09:07:30.189Z,6.00
2018-11-12T09:08:36.977Z,7.20
2018-11-12T09:09:43.783Z,9.00
2018-11-12T09:10:50.596Z,6.90
2018-11-12T09:11:57.365Z,7.10
2018-11-12T09:13:04.162Z,6.70
2018-11-12T09:14:10.938Z,9.60
2018-11-12T09:15:17.724Z,6.20
2018-11-12T09:16:24.704Z,8.40
2018-11-12T09:17:31.498Z,6.10
2018-11-12T09:18:38.300Z,9.80
2018-11-12T09:19:45.053Z,5.20
2018-11-12T09:20:51.812Z,4.80
2018-11-12T09:21:58.570Z,5.20
2018-11-12T09:23:05.444Z,4.10
2018-11-12T09:24:12.318Z,3.70
2018-11-12T09:25:19.014Z,3.90
2018-11-12T09:26:26.026Z,3.80
2018-11-12T09:27:32.942Z,5.90
2018-11-12T09:28:39.878Z,3.20
2018-11-12T09:29:46.700Z,4.80
2018-11-12T09:30:55.113Z,3.10
2018-11-12T09:32:00.435Z,3.30
2018-11-12T09:33:07.305Z,3.50
2018-11-12T09:34:14.057Z,3.10
2018-11-12T09:35:20.911Z,3.80
2018-11-12T09:36:28.094Z,3.10
2018-11-12T09:38:41.777Z,4.30
2018-11-12T09:39:48.479Z,4.10
2018-11-12T09:40:55.246Z,6.10
2018-11-12T09:42:02.041Z,6.90
2018-11-12T09:43:08.877Z,7.80
2018-11-12T09:44:15.667Z,7.60
2018-11-12T09:45:22.446Z,5.40
2018-11-12T09:46:29.297Z,6.50
2018-11-12T09:47:36.117Z,6.90
2018-11-12T09:48:43.135Z,5.30
2018-11-12T09:49:49.713Z,6.20
2018-11-12T09:50:56.557Z,3.80
2018-11-12T09:52:03.329Z,4.00
2018-11-12T09:53:10.181Z,6.20
2018-11-12T09:54:16.989Z,5.20
2018-11-12T09:55:23.735Z,4.60
2018-11-12T09:56:30.427Z,4.00
2018-11-12T09:57:37.281Z,4.60
2018-11-12T09:58:44.145Z,3.20
2018-11-12T09:59:50.917Z,4.30
2018-11-12T10:00:58.113Z,4.50
2018-11-12T10:02:05.015Z,6.60
2018-11-12T10:03:12.307Z,4.40
2018-11-12T10:04:18.578Z,5.40
2018-11-12T10:05:25.877Z,3.50
2018-11-12T10:06:32.873Z,5.70
2018-11-12T10:07:39.961Z,6.30
2018-11-12T10:08:47.463Z,5.40
2018-11-12T10:09:54.302Z,6.50
2018-11-12T10:11:01.329Z,5.30
2018-11-12T10:12:09.151Z,4.60
2018-11-12T10:13:15.264Z,5.00
2018-11-12T10:14:22.971Z,5.10
2018-11-12T10:15:30.140Z,5.50
2018-11-12T10:16:35.821Z,5.90
2018-11-12T10:17:42.716Z,5.30
2018-11-12T10:18:46.893Z,6.20
2018-11-12T10:19:53.573Z,13.30
2018-11-12T10:21:00.323Z,5.20
2018-11-12T10:22:07.098Z,5.30
2018-11-12T10:23:13.853Z,5.50
2018-11-12T10:24:20.617Z,5.60
2018-11-12T10:25:27.445Z,5.00
2018-11-12T10:26:34.209Z,6.20
2018-11-12T10:27:40.946Z,4.70
2018-11-12T10:28:47.708Z,3.80
2018-11-12T10:29:54.433Z,3.60
2018-11-12T10:31:01.185Z,5.70
2018-11-12T10:32:08.012Z,3.70
2018-11-12T10:33:15.162Z,4.10
2018-11-12T10:34:21.556Z,3.30
2018-11-12T10:35:28.594Z,7.50
2018-11-12T10:36:35.446Z,5.40
2018-11-12T10:37:42.174Z,4.30
2018-11-12T10:38:48.974Z,3.40
2018-11-12T10:39:55.726Z,6.20
2018-11-12T10:41:02.709Z,6.30
2018-11-12T10:42:09.456Z,7.70
2018-11-12T10:43:16.242Z,5.70
2018-11-12T10:44:23.075Z,6.50
2018-11-12T10:45:29.886Z,5.10
2018-11-12T10:46:36.699Z,5.00
2018-11-12T10:47:43.542Z,4.60
2018-11-12T10:48:50.327Z,5.50
2018-11-12T10:49:57.174Z,6.00
2018-11-12T10:51:05.171Z,4.90
2018-11-12T10:52:11.125Z,4.80
2018-11-12T10:53:17.940Z,5.00
2018-11-12T10:54:25.045Z,4.30
2018-11-12T10:55:32.068Z,5.90
2018-11-12T10:56:38.652Z,4.70
2018-11-12T10:57:45.521Z,5.60
2018-11-12T10:58:52.314Z,6.30
2018-11-12T10:59:59.146Z,4.20
2018-11-12T11:01:06.014Z,3.90
2018-11-12T11:02:12.834Z,3.60
2018-11-12T11:03:19.975Z,3.30
2018-11-12T11:04:26.349Z,4.70
2018-11-12T11:05:33.381Z,5.20
2018-11-12T11:06:40.514Z,2.80
2018-11-12T11:07:47.518Z,3.60
2018-11-12T11:08:54.658Z,3.30
2018-11-12T11:10:01.527Z,3.00
2018-11-12T11:11:08.138Z,3.60
2018-11-12T11:12:14.969Z,6.10
2018-11-12T11:13:21.776Z,5.20
2018-11-12T11:14:28.663Z,3.10
2018-11-12T11:15:35.614Z,3.30
2018-11-12T11:16:42.512Z,5.20
2018-11-12T11:17:49.394Z,4.60
2018-11-12T11:18:56.250Z,2.80
2018-11-12T11:20:03.033Z,2.90
2018-11-12T11:21:09.940Z,4.60
2018-11-12T11:22:16.850Z,5.80
2018-11-12T11:23:23.696Z,2.40
2018-11-12T11:24:30.505Z,4.70
2018-11-12T11:25:37.282Z,2.40
2018-11-12T11:26:44.160Z,2.60
2018-11-12T11:27:51.037Z,5.60
2018-11-12T11:28:57.879Z,3.60
2018-11-12T11:30:04.642Z,3.80
2018-11-12T11:31:11.443Z,3.60
2018-11-12T11:32:19.863Z,3.20
2018-11-12T11:33:25.218Z,2.50
2018-11-12T11:34:32.181Z,3.30
2018-11-12T11:35:39.175Z,3.30
2018-11-12T11:36:46.141Z,6.70
2018-11-12T11:37:54.286Z,3.90
2018-11-12T11:39:00.182Z,5.70
2018-11-12T11:40:07.094Z,3.90
2018-11-12T11:41:18.406Z,3.90
2018-11-12T11:42:22.231Z,5.20
2018-11-12T11:43:29.099Z,5.20
2018-11-12T11:44:34.989Z,4.00
2018-11-12T11:45:42.658Z,3.30
2018-11-12T11:46:48.570Z,4.80
2018-11-12T11:47:56.573Z,6.30
2018-11-12T11:49:08.114Z,5.70
2018-11-12T11:50:09.579Z,2.30
2018-11-12T11:51:16.263Z,5.00
2018-11-12T11:52:23.169Z,9.80
2018-11-12T11:53:29.971Z,4.80
2018-11-12T11:54:36.753Z,3.50
2018-11-12T11:55:43.557Z,5.10
2018-11-12T11:56:50.477Z,2.80
2018-11-12T11:57:57.162Z,2.90
2018-11-12T11:59:04.032Z,3.90
2018-11-12T12:00:10.707Z,4.60
2018-11-12T12:01:17.889Z,4.30
2018-11-12T12:02:24.848Z,5.20
2018-11-12T12:03:31.694Z,2.20
2018-11-12T12:04:38.561Z,3.50
2018-11-12T12:05:45.482Z,3.80
2018-11-12T12:06:52.727Z,3.10
2018-11-12T12:07:59.309Z,2.80
2018-11-12T12:09:06.381Z,3.20
2018-11-12T12:10:13.287Z,2.40
2018-11-12T12:11:20.183Z,4.60
2018-11-12T12:12:27.358Z,5.20
2018-11-12T12:13:34.026Z,2.00
2018-11-12T12:14:41.678Z,3.90
2018-11-12T12:15:47.518Z,1.90
2018-11-12T12:16:54.394Z,2.00
2018-11-12T12:18:01.170Z,3.70
2018-11-12T12:19:08.187Z,2.30
2018-11-12T12:20:15.506Z,2.50
2018-11-12T12:21:22.847Z,1.80
2018-11-12T12:22:28.591Z,2.00
2018-11-12T12:23:35.436Z,2.60
2018-11-12T12:24:42.369Z,3.10
2018-11-12T12:25:49.258Z,1.70
2018-11-12T12:26:56.029Z,1.80
2018-11-12T12:28:02.945Z,1.70
2018-11-12T12:29:11.757Z,2.70
2018-11-12T12:30:16.762Z,2.40
2018-11-12T12:31:23.549Z,1.80
2018-11-12T12:32:30.334Z,1.60
2018-11-12T12:33:37.109Z,2.10
2018-11-12T12:34:43.994Z,1.80
2018-11-12T12:35:50.787Z,1.60
2018-11-12T12:36:57.527Z,1.90
2018-11-12T12:38:04.412Z,1.60
2018-11-12T12:39:11.778Z,1.50
2018-11-12T12:40:18.647Z,2.20
2018-11-12T12:41:25.546Z,1.30
2018-11-12T12:42:32.451Z,1.30
2018-11-12T12:43:39.277Z,1.80
2018-11-12T12:44:46.167Z,1.60
2018-11-12T12:45:53.060Z,2.40
2018-11-12T12:46:59.608Z,2.90
2018-11-12T12:48:06.383Z,1.70
2018-11-12T12:49:14.300Z,1.50
2018-11-12T12:50:20.224Z,1.90
2018-11-12T12:51:27.061Z,1.40
2018-11-12T12:52:34.151Z,1.90
2018-11-12T12:53:41.054Z,1.60
2018-11-12T12:54:48.073Z,1.50
2018-11-12T12:55:55.214Z,3.10
2018-11-12T12:57:02.038Z,4.20
2018-11-12T12:58:08.994Z,1.70
2018-11-12T12:59:15.958Z,1.70
2018-11-12T13:00:22.863Z,2.20
2018-11-12T13:01:29.621Z,1.50
2018-11-12T13:02:36.475Z,1.60
2018-11-12T13:03:43.499Z,1.50
2018-11-12T13:04:53.684Z,1.70
2018-11-12T13:05:57.097Z,1.80
2018-11-12T13:07:03.932Z,1.80
2018-11-12T13:08:10.790Z,2.10
2018-11-12T13:09:17.677Z,1.50
2018-11-12T13:10:24.485Z,2.70
2018-11-12T13:11:31.274Z,1.70
2018-11-12T13:12:38.075Z,1.70
2018-11-12T13:13:44.870Z,2.40
2018-11-12T13:14:51.797Z,1.70
2018-11-12T13:15:58.646Z,3.20
2018-11-12T13:17:05.628Z,1.60
2018-11-12T13:18:12.506Z,3.50
2018-11-12T13:19:19.431Z,4.00
2018-11-12T13:20:26.306Z,1.90
2018-11-12T13:21:33.186Z,2.40
2018-11-12T13:22:40.018Z,7.30
2018-11-12T13:23:47.078Z,3.20
2018-11-12T13:24:53.870Z,1.50
2018-11-12T13:26:00.737Z,1.80
2018-11-12T13:27:07.549Z,2.80
2018-11-12T13:28:14.314Z,1.50
2018-11-12T13:29:21.125Z,2.10
2018-11-12T13:30:27.861Z,1.50
2018-11-12T13:31:34.665Z,1.60
2018-11-12T13:32:41.562Z,1.50
2018-11-12T13:33:48.514Z,1.60
2018-11-12T13:34:55.289Z,3.00
2018-11-12T13:36:02.079Z,2.20
2018-11-12T13:37:09.082Z,2.70
2018-11-12T13:38:15.877Z,1.60
2018-11-12T13:39:22.710Z,1.70
2018-11-12T13:40:29.464Z,1.60
2018-11-12T13:41:36.260Z,1.70
2018-11-12T13:42:43.229Z,2.90
2018-11-12T13:43:49.972Z,2.20
2018-11-12T13:44:56.733Z,1.70
2018-11-12T13:46:03.525Z,1.90
2018-11-12T13:47:10.270Z,1.40
2018-11-12T13:48:17.013Z,1.80
2018-11-12T13:49:23.794Z,2.30
2018-11-12T13:50:30.641Z,2.40
2018-11-12T13:51:37.401Z,1.90
2018-11-12T13:52:44.223Z,2.20
2018-11-12T13:53:51.322Z,2.40
2018-11-12T13:54:58.181Z,3.60
2018-11-12T13:56:04.954Z,1.90
2018-11-12T13:57:12.034Z,3.80
2018-11-12T13:58:18.795Z,2.40
2018-11-12T13:59:25.530Z,1.70
2018-11-12T14:00:32.381Z,2.90
2018-11-12T14:01:39.185Z,2.90
2018-11-12T14:02:45.980Z,4.20
2018-11-12T14:03:52.926Z,2.40
2018-11-12T14:04:59.874Z,1.90
2018-11-12T14:06:06.783Z,3.20
2018-11-12T14:07:13.537Z,1.90
2018-11-12T14:08:20.288Z,2.20
2018-11-12T14:09:27.080Z,2.00
2018-11-12T14:10:33.848Z,2.20
2018-11-12T14:11:40.689Z,1.80
2018-11-12T14:12:47.473Z,2.80
2018-11-12T14:13:54.468Z,2.40
2018-11-12T14:15:01.173Z,2.90
2018-11-12T14:16:08.079Z,1.70
2018-11-12T14:17:14.850Z,2.00
2018-11-12T14:18:21.610Z,2.20
2018-11-12T14:19:28.374Z,2.40
2018-11-12T14:20:35.239Z,2.80
2018-11-12T14:21:42.051Z,2.80
2018-11-12T14:22:48.697Z,5.10
2018-11-12T14:23:55.545Z,2.00
2018-11-12T14:25:02.425Z,5.50
2018-11-12T14:26:09.518Z,2.00
2018-11-12T14:27:16.366Z,4.70
2018-11-12T14:28:23.245Z,2.10
2018-11-12T14:29:29.925Z,2.20
2018-11-12T14:30:36.732Z,2.10
2018-11-12T14:31:44.491Z,3.30
2018-11-12T14:32:50.353Z,2.60
2018-11-12T14:33:57.129Z,2.50
2018-11-12T14:35:04.014Z,2.90
2018-11-12T14:36:11.113Z,1.90
2018-11-12T14:37:17.943Z,4.30
2018-11-12T14:38:24.762Z,2.10
2018-11-12T14:39:31.575Z,2.70
2018-11-12T14:40:41.374Z,2.90
2018-11-12T14:41:45.400Z,4.10
2018-11-12T14:42:51.914Z,2.30
2018-11-12T14:43:58.694Z,2.30
2018-11-12T14:45:05.602Z,2.80
2018-11-12T14:46:12.342Z,1.90
2018-11-12T14:47:19.171Z,3.80
2018-11-12T14:48:25.940Z,4.00
2018-11-12T14:49:32.681Z,4.10
2018-11-12T14:50:39.456Z,4.00